Time;durP1;ratioP1;P1;durP2;ratioP2;P2;SDS_P1;SDS_P2;PMS_P1;PMS_P2;Temp;Humidity;BMP_temperature;BMP_pressure;BME280_temperature;BME280_humidity;BME280_pressure;Samples;Min_cycle;Max_cycle;Signal;HPM_P1;HPM_P2
2022/11/08 00:15:44;;;;;;;4.93;2.90;;;;;;;4.12;100.00;101075.16;10581526;28;20495;-72
2022/11/08 00:20:45;;;;;;;5.35;3.05;;;;;;;4.30;100.00;101096.69;10582668;27;20044;-73
2022/11/08 00:25:53;;;;;;;4.60;2.92;;;;;;;4.34;100.00;101087.66;10581438;28;20104;-72
2022/11/08 00:30:54;;;;;;;6.05;3.20;;;;;;;4.37;100.00;101102.34;10581381;28;20460;-72
2022/11/08 00:35:58;;;;;;;5.25;3.20;;;;;;;4.24;100.00;101081.34;10581432;28;20032;-72
2022/11/08 00:40:59;;;;;;;6.95;2.95;;;;;;;4.38;100.00;101088.28;10581399;28;20142;-72
2022/11/08 00:45:59;;;;;;;4.50;2.95;;;;;;;4.43;100.00;101099.28;10581318;28;20055;-72
2022/11/08 00:51:06;;;;;;;6.00;2.88;;;;;;;4.26;100.00;101066.31;10579975;28;20035;-72
2022/11/08 00:56:11;;;;;;;6.53;2.60;;;;;;;4.31;100.00;101077.34;10580032;28;20058;-72
2022/11/08 01:01:21;;;;;;;4.83;2.50;;;;;;;4.48;100.00;101103.28;10579934;28;20046;-72
2022/11/08 01:06:23;;;;;;;5.43;2.90;;;;;;;4.43;100.00;101094.03;10579859;28;20414;-72
2022/11/08 01:11:25;;;;;;;5.18;2.92;;;;;;;4.44;100.00;101095.72;10560481;28;20508;-72
2022/11/08 01:16:29;;;;;;;4.78;2.78;;;;;;;4.45;100.00;101098.22;10501213;28;20036;-72
2022/11/08 01:21:30;;;;;;;6.97;2.83;;;;;;;4.49;100.00;101107.59;10495412;28;20047;-71
2022/11/08 01:26:31;;;;;;;4.75;3.10;;;;;;;4.50;100.00;101093.47;10496048;28;20127;-72
2022/11/08 01:31:32;;;;;;;6.40;3.33;;;;;;;4.33;100.00;101064.91;10494069;28;20123;-72
2022/11/08 01:36:32;;;;;;;7.68;3.50;;;;;;;4.37;100.00;101074.28;10495776;28;20040;-72
2022/11/08 01:41:33;;;;;;;5.13;2.78;;;;;;;3.97;100.00;100992.13;10496177;28;20061;-72
2022/11/08 01:46:37;;;;;;;5.90;3.45;;;;;;;4.60;100.00;101095.44;10495013;28;20416;-72
2022/11/08 01:51:54;;;;;;;5.57;3.10;;;;;;;4.47;100.00;101062.13;10494959;28;20411;-72
2022/11/08 01:56:57;;;;;;;5.65;3.00;;;;;;;4.65;100.00;101090.69;10494705;28;20044;-73
2022/11/08 02:01:58;;;;;;;6.53;3.47;;;;;;;4.66;100.00;101089.75;10533044;28;20051;-72
2022/11/08 02:07:00;;;;;;;5.30;3.33;;;;;;;4.70;100.00;101089.41;10528840;28;20377;-73
2022/11/08 02:12:01;;;;;;;6.38;3.53;;;;;;;4.69;100.00;101108.78;10524002;28;20047;-73
2022/11/08 02:17:02;;;;;;;7.50;3.35;;;;;;;4.62;100.00;101098.81;10540041;28;20032;-71
2022/11/08 02:22:11;;;;;;;5.78;3.17;;;;;;;4.51;100.00;101082.00;10500718;28;20575;-72
2022/11/08 02:27:13;;;;;;;7.10;3.70;;;;;;;4.21;100.00;101029.81;10502306;28;20036;-73
2022/11/08 02:32:14;;;;;;;5.50;3.50;;;;;;;4.56;100.00;101082.50;10503035;28;20040;-73
2022/11/08 02:37:17;;;;;;;6.50;3.42;;;;;;;4.66;100.00;101087.09;10512793;28;20049;-71
2022/11/08 02:42:19;;;;;;;5.45;3.60;;;;;;;4.58;100.00;101056.94;10538792;28;20064;-72
2022/11/08 02:47:20;;;;;;;7.88;3.78;;;;;;;4.62;100.00;101069.88;10529601;28;20165;-72
2022/11/08 02:52:21;;;;;;;6.75;3.70;;;;;;;4.10;100.00;100985.91;10535563;28;20524;-73
2022/11/08 02:57:21;;;;;;;7.13;3.58;;;;;;;4.47;100.00;101035.00;10521652;28;20048;-72
2022/11/08 03:02:22;;;;;;;10.98;3.45;;;;;;;4.60;100.00;101050.72;10499967;28;20074;-73
2022/11/08 03:07:23;;;;;;;8.38;3.78;;;;;;;4.69;100.00;101068.47;10500856;28;20037;-72
2022/11/08 03:12:23;;;;;;;6.63;3.63;;;;;;;4.25;100.00;100997.09;10510468;28;20647;-72
2022/11/08 03:17:24;;;;;;;8.40;3.97;;;;;;;4.57;100.00;101042.09;10531687;28;20040;-71
2022/11/08 03:22:25;;;;;;;10.07;3.47;;;;;;;4.76;100.00;101069.72;10540339;28;20044;-73
2022/11/08 03:27:26;;;;;;;7.97;3.83;;;;;;;4.89;100.00;101082.81;10542048;28;20531;-73
2022/11/08 03:32:27;;;;;;;9.48;3.78;;;;;;;4.89;100.00;101086.28;10541338;28;20044;-72
2022/11/08 03:37:28;;;;;;;8.98;3.55;;;;;;;4.92;100.00;101082.56;10541240;28;20463;-73
2022/11/08 03:42:28;;;;;;;9.43;4.05;;;;;;;4.44;100.00;100996.59;10540443;28;20052;-72
2022/11/08 03:47:29;;;;;;;12.57;4.13;;;;;;;4.90;100.00;101066.03;10539303;28;20036;-72
2022/11/08 03:52:30;;;;;;;8.25;4.13;;;;;;;5.06;100.00;101094.72;10540576;28;20048;-72
2022/11/08 03:57:31;;;;;;;14.50;4.15;;;;;;;4.50;100.00;100982.16;10541644;28;20036;-72
2022/11/08 04:02:32;;;;;;;8.55;3.65;;;;;;;5.12;100.00;101086.38;10533502;28;20411;-72
2022/11/08 04:07:33;;;;;;;11.57;4.20;;;;;;;5.03;100.00;101067.66;10521731;28;20048;-72
2022/11/08 04:23:17;;;;;;;13.07;3.65;;;;;;;5.26;100.00;101075.63;10492210;28;20177;-73
2022/11/08 04:28:18;;;;;;;15.68;4.20;;;;;;;5.10;100.00;101038.22;10492049;28;20036;-73
2022/11/08 04:33:19;;;;;;;8.77;3.97;;;;;;;5.47;100.00;101095.09;10496129;28;20416;-73
2022/11/08 04:38:21;;;;;;;11.77;3.95;;;;;;;5.53;100.00;101101.66;10496511;28;20078;-73
2022/11/08 04:43:22;;;;;;;20.52;4.72;;;;;;;5.11;100.00;101019.66;10502682;28;20040;-72
2022/11/08 04:48:22;;;;;;;7.72;4.10;;;;;;;5.60;100.00;101102.06;10510610;28;20036;-72
2022/11/08 04:53:23;;;;;;;6.93;4.15;;;;;;;5.68;100.00;101107.56;10538216;28;20032;-72
2022/11/08 04:58:24;;;;;;;7.85;3.97;;;;;;;5.82;100.00;101106.50;10514348;28;20101;-73
2022/11/08 05:03:25;;;;;;;7.13;3.70;;;;;;;5.96;100.00;101116.03;10511328;28;20043;-72
2022/11/08 05:08:25;;;;;;;9.68;4.00;;;;;;;5.94;100.00;101103.78;10516508;28;20093;-73
2022/11/08 05:13:26;;;;;;;8.77;3.90;;;;;;;6.09;100.00;101122.03;10513881;28;20078;-73
2022/11/08 05:18:28;;;;;;;8.07;3.85;;;;;;;6.12;100.00;101113.88;10518601;28;20048;-73
2022/11/08 05:23:30;;;;;;;10.02;3.97;;;;;;;6.09;100.00;101122.84;10506020;28;20048;-79
2022/11/08 05:28:30;;;;;;;7.20;3.88;;;;;;;6.04;100.00;101109.22;10495812;28;20036;-70
2022/11/08 05:33:32;;;;;;;7.60;3.65;;;;;;;6.25;100.00;101125.16;10497196;28;20408;-71
2022/11/08 05:38:34;;;;;;;11.60;3.50;;;;;;;6.25;100.00;101132.19;10510385;28;20063;-71
2022/11/08 05:43:35;;;;;;;8.77;3.40;;;;;;;6.08;100.00;101080.78;10509133;28;20476;-71
2022/11/08 05:48:36;;;;;;;8.45;3.72;;;;;;;5.88;100.00;101040.94;10509321;28;20043;-70
2022/11/08 05:53:38;;;;;;;9.15;3.15;;;;;;;6.38;100.00;101123.22;10508761;28;20049;-72
2022/11/08 05:58:39;;;;;;;5.38;3.05;;;;;;;6.40;100.00;101125.72;10508486;28;20526;-72
2022/11/08 06:03:39;;;;;;;7.85;4.22;;;;;;;6.52;100.00;101118.63;10509439;28;20079;-71
2022/11/08 06:08:41;;;;;;;25.15;4.18;;;;;;;6.58;100.00;101113.72;10509494;28;20040;-72
2022/11/08 06:13:42;;;;;;;19.88;8.95;;;;;;;6.62;100.00;101109.03;10508290;28;20086;-72
2022/11/08 06:18:43;;;;;;;6.80;3.70;;;;;;;6.46;100.00;101058.41;10508867;28;20036;-72
2022/11/08 06:23:45;;;;;;;12.30;3.10;;;;;;;6.90;100.00;101123.44;10508874;28;20500;-72
2022/11/08 06:28:46;;;;;;;6.95;3.40;;;;;;;6.94;100.00;101129.31;10507859;28;20411;-72
2022/11/08 06:33:47;;;;;;;9.65;3.40;;;;;;;6.93;100.00;101120.56;10507945;28;20047;-72
2022/11/08 06:38:53;;;;;;;8.38;3.20;;;;;;;6.87;100.00;101094.66;10507796;28;20056;-71
2022/11/08 06:43:54;;;;;;;7.88;3.38;;;;;;;7.07;100.00;101108.88;10507655;28;20067;-73
2022/11/08 06:48:55;;;;;;;6.40;3.22;;;;;;;7.32;100.00;101102.38;10501016;28;20179;-72
2022/11/08 06:53:56;;;;;;;8.35;3.60;;;;;;;7.41;100.00;101103.41;10501389;28;20178;-71
2022/11/08 06:58:56;;;;;;;10.88;3.92;;;;;;;7.23;100.00;101068.78;10500751;28;20470;-71
2022/11/08 07:03:57;;;;;;;9.77;3.70;;;;;;;7.49;100.00;101098.31;10500405;28;20052;-72
2022/11/08 07:08:58;;;;;;;7.47;3.90;;;;;;;7.22;100.00;101041.53;10500542;28;20033;-72
2022/11/08 07:13:58;;;;;;;7.88;3.63;;;;;;;7.62;100.00;101098.94;10500688;28;20427;-72
2022/11/08 07:18:59;;;;;;;6.35;3.45;;;;;;;7.61;100.00;101104.38;10500063;28;20071;-71
2022/11/08 07:24:00;;;;;;;8.57;3.60;;;;;;;6.96;100.00;100972.38;10500249;28;20486;-70
2022/11/08 07:29:01;;;;;;;5.95;3.20;;;;;;;7.93;100.00;101086.59;10499879;28;20040;-71
2022/11/08 07:34:01;;;;;;;6.65;3.30;;;;;;;7.57;100.00;101007.75;10499937;28;20036;-70
2022/11/08 07:39:02;;;;;;;10.43;2.75;;;;;;;7.74;100.00;101015.06;10499775;28;20411;-71
2022/11/08 07:44:03;;;;;;;8.02;3.65;;;;;;;8.29;100.00;101084.38;10498873;28;20500;-71
2022/11/08 07:49:04;;;;;;;17.75;9.75;;;;;;;8.43;100.00;101073.41;10499592;28;20548;-71
2022/11/08 07:54:04;;;;;;;8.55;3.88;;;;;;;8.50;100.00;101071.06;10499142;28;20440;-71
2022/11/08 07:59:05;;;;;;;6.07;3.38;;;;;;;7.98;99.61;100989.13;10497116;28;20097;-70
2022/11/08 08:04:08;;;;;;;12.35;3.42;;;;;;;8.56;99.67;101074.97;10498585;28;20041;-70
2022/11/08 08:09:08;;;;;;;7.57;3.08;;;;;;;8.11;99.09;101014.53;10497962;28;20045;-70
2022/11/08 08:14:09;;;;;;;6.38;3.20;;;;;;;8.56;99.03;101069.69;10498592;28;20480;-70
2022/11/08 08:19:10;;;;;;;8.48;3.47;;;;;;;8.64;98.83;101064.50;10497445;28;20049;-69
2022/11/08 08:24:11;;;;;;;7.28;3.22;;;;;;;8.80;98.82;101059.53;10497164;28;20066;-70
2022/11/08 08:29:11;;;;;;;6.07;3.28;;;;;;;8.71;98.12;101060.34;10496946;28;20040;-71
2022/11/08 08:34:14;;;;;;;8.65;4.15;;;;;;;8.49;98.33;101019.06;10497813;28;20043;-70
2022/11/08 08:39:15;;;;;;;8.75;3.78;;;;;;;8.66;98.69;101052.81;10496986;28;20056;-69
2022/11/08 08:44:15;;;;;;;9.73;3.35;;;;;;;8.64;99.03;101052.09;10496445;28;20052;-70
2022/11/08 08:49:16;;;;;;;6.75;3.50;;;;;;;8.66;99.54;101031.63;10496863;28;20043;-71
2022/11/08 08:54:17;;;;;;;9.70;3.03;;;;;;;8.70;99.47;101008.34;10497065;28;20036;-70
2022/11/08 08:59:18;;;;;;;6.10;2.88;;;;;;;8.90;99.52;101019.78;10497179;28;20174;-70
2022/11/08 09:04:18;;;;;;;9.27;3.22;;;;;;;8.84;98.93;100976.13;10495859;28;20040;-71
2022/11/08 09:09:20;;;;;;;6.32;2.97;;;;;;;9.11;98.82;101003.72;10495872;28;20513;-71
2022/11/08 09:14:21;;;;;;;13.15;2.92;;;;;;;9.22;98.18;101003.56;10495955;28;20496;-70
2022/11/08 09:19:22;;;;;;;6.10;3.30;;;;;;;9.18;98.14;100973.00;10495583;28;20036;-70
2022/11/08 09:24:22;;;;;;;6.15;3.10;;;;;;;9.46;97.92;101002.25;10495923;28;20134;-70
2022/11/08 09:29:23;;;;;;;7.90;2.90;;;;;;;9.22;97.52;100928.50;10500024;28;20036;-71
2022/11/08 09:34:24;;;;;;;6.97;2.90;;;;;;;9.63;97.33;100988.19;10494045;28;20567;-71
2022/11/08 09:39:25;;;;;;;8.95;2.88;;;;;;;9.36;97.39;100931.50;10494607;28;20087;-70
2022/11/08 09:44:43;;;;;;;7.88;2.90;;;;;;;9.77;97.31;100990.38;10495568;28;20086;-72
2022/11/08 09:49:53;;;;;;;12.10;3.58;;;;;;;9.70;97.30;100991.13;10495094;28;20051;-72
2022/11/08 09:55:13;;;;;;;9.80;3.13;;;;;;;9.59;97.04;100973.56;10529675;28;20048;-71
2022/11/08 10:00:14;;;;;;;8.18;3.03;;;;;;;9.12;96.70;100892.25;10536142;28;20117;-70
2022/11/08 10:05:18;;;;;;;7.90;3.25;;;;;;;9.67;96.50;100951.63;10536391;28;20071;-70
2022/11/08 10:10:56;;;;;;;8.32;3.42;;;;;;;9.99;95.76;100961.75;10537072;28;20048;-71
2022/11/08 10:16:15;;;;;;;12.35;2.78;;;;;;;10.10;95.13;100963.38;10536209;28;20044;-70
2022/11/08 10:21:31;;;;;;;5.82;2.78;;;;;;;10.13;94.56;100963.91;10539510;28;20036;-70
2022/11/08 10:26:41;;;;;;;11.30;2.30;;;;;;;9.73;95.19;100895.31;10544384;28;20036;-70
2022/11/08 10:31:45;;;;;;;6.93;2.10;;;;;;;10.11;95.17;100954.41;10544202;28;20048;-70
2022/11/08 10:36:48;;;;;;;6.07;2.42;;;;;;;10.12;94.56;100961.41;10543511;28;20361;-70
2022/11/08 10:42:01;;;;;;;8.40;2.30;;;;;;;9.72;93.83;100875.91;10543449;28;20062;-71
2022/11/08 10:47:05;;;;;;;6.00;2.20;;;;;;;10.19;93.89;100946.53;10541773;28;20424;-70
2022/11/08 10:52:33;;;;;;;4.28;2.13;;;;;;;10.25;93.25;100953.91;10543934;28;20048;-71
2022/11/08 10:57:42;;;;;;;6.90;2.15;;;;;;;10.22;92.95;100940.94;10542774;28;20523;-71
2022/11/08 11:02:44;;;;;;;7.43;2.00;;;;;;;9.80;92.10;100861.88;10543314;27;20043;-70
2022/11/08 11:08:00;;;;;;;9.05;1.70;;;;;;;10.43;91.31;100964.56;10542220;28;20478;-71
2022/11/08 11:13:26;;;;;;;9.50;2.33;;;;;;;10.44;90.42;100955.59;10543337;28;20036;-70
2022/11/08 11:18:29;;;;;;;5.05;1.95;;;;;;;10.36;91.88;100953.72;10542928;28;20085;-71
2022/11/08 11:23:42;;;;;;;5.90;1.73;;;;;;;10.29;92.25;100963.28;10542192;28;20085;-71
2022/11/08 11:29:05;;;;;;;6.25;2.28;;;;;;;9.97;93.75;100895.56;10541385;28;20070;-71
2022/11/08 11:34:15;;;;;;;6.32;2.20;;;;;;;9.89;92.38;100884.03;10499546;28;20037;-70
2022/11/08 11:39:31;;;;;;;3.65;2.10;;;;;;;10.38;91.76;100966.84;10499612;28;20139;-71
2022/11/08 11:44:47;;;;;;;4.18;2.17;;;;;;;10.36;92.74;100959.03;10498928;28;20487;-72
2022/11/08 11:49:50;;;;;;;4.68;2.20;;;;;;;9.84;92.37;100884.47;10499175;28;20040;-70
2022/11/08 11:54:51;;;;;;;16.17;2.70;;;;;;;10.06;92.85;100950.41;10499167;28;20036;-70
2022/11/08 12:00:13;;;;;;;9.05;1.92;;;;;;;10.16;93.04;100962.78;10498901;28;20041;-70
2022/11/08 12:05:35;;;;;;;8.68;2.40;;;;;;;10.19;93.69;100989.03;10498684;28;20044;-70
2022/11/08 12:10:48;;;;;;;5.03;2.03;;;;;;;10.02;93.78;100986.22;10497856;28;20500;-70
2022/11/08 12:16:10;;;;;;;7.83;2.13;;;;;;;9.98;93.43;100986.63;10497587;28;20040;-70
2022/11/08 12:21:18;;;;;;;7.10;1.88;;;;;;;9.93;93.92;100983.59;10497391;28;20036;-71
2022/11/08 12:26:39;;;;;;;5.57;2.13;;;;;;;9.90;93.86;100990.03;10497834;28;20416;-70
2022/11/08 12:31:52;;;;;;;8.90;2.47;;;;;;;9.89;94.51;100998.16;10496139;28;20045;-70
2022/11/08 12:37:11;;;;;;;7.05;1.90;;;;;;;9.80;95.98;101002.50;10496757;28;20048;-70
2022/11/08 12:42:38;;;;;;;12.27;2.33;;;;;;;9.77;95.86;101000.16;10496491;28;20150;-71
2022/11/08 12:48:02;;;;;;;11.73;2.78;;;;;;;9.56;98.04;100981.81;10506935;28;20040;-70
2022/11/08 12:53:24;;;;;;;13.55;2.72;;;;;;;9.63;98.45;101008.59;10500361;28;20044;-70
2022/11/08 12:58:45;;;;;;;6.55;2.53;;;;;;;9.14;100.00;100961.00;10496091;28;20416;-69
2022/11/08 13:04:05;;;;;;;6.63;2.90;;;;;;;8.50;100.00;100866.34;10497171;28;20123;-70
2022/11/08 13:09:33;;;;;;;4.80;2.25;;;;;;;8.78;100.00;100936.13;10495069;28;20040;-70
2022/11/08 13:14:35;;;;;;;12.60;3.10;;;;;;;9.09;100.00;101000.34;10496241;28;20127;-70
2022/11/08 13:19:50;;;;;;;10.85;3.53;;;;;;;9.11;100.00;101023.09;10495876;28;20039;-70
2022/11/08 13:24:51;;;;;;;8.98;3.28;;;;;;;9.03;100.00;101022.97;10494133;28;20055;-71
2022/11/08 13:29:53;;;;;;;12.00;3.30;;;;;;;8.98;100.00;101021.72;10491668;28;20036;-70
2022/11/08 13:35:24;;;;;;;12.88;3.83;;;;;;;8.91;100.00;101018.78;10496477;28;20048;-71
2022/11/08 13:40:31;;;;;;;13.48;3.63;;;;;;;8.93;100.00;101016.00;10496587;28;20056;-71
2022/11/08 13:45:33;;;;;;;12.60;3.22;;;;;;;8.86;100.00;101015.75;10495500;28;20037;-70
2022/11/08 13:50:48;;;;;;;15.27;4.00;;;;;;;8.94;100.00;101013.22;10494710;28;20048;-71
2022/11/08 13:56:16;;;;;;;23.13;3.67;;;;;;;8.90;100.00;101012.66;10497925;28;20534;-71
2022/11/08 14:01:22;;;;;;;11.40;3.90;;;;;;;8.96;100.00;101023.69;10503022;28;20044;-72
2022/11/08 14:06:31;;;;;;;10.82;3.63;;;;;;;8.93;100.00;101032.75;10501261;28;20511;-72
2022/11/08 14:11:43;;;;;;;10.40;3.53;;;;;;;8.81;100.00;101002.91;10515237;28;20043;-72
2022/11/08 14:17:28;;;;;;;13.10;3.92;;;;;;;8.90;100.00;101010.00;10519955;28;20159;-72
2022/11/08 14:22:29;;;;;;;18.65;4.00;;;;;;;8.40;100.00;100937.81;10512309;28;20048;-74
2022/11/08 14:27:35;;;;;;;10.40;4.07;;;;;;;8.82;100.00;101025.75;10521193;28;20143;-73
2022/11/08 14:32:36;;;;;;;10.25;4.43;;;;;;;8.55;100.00;101002.63;10515472;28;20040;-72
2022/11/08 14:37:37;;;;;;;11.23;4.20;;;;;;;8.06;100.00;100958.53;10507344;28;20039;-72
2022/11/08 14:42:43;;;;;;;10.10;3.35;;;;;;;8.40;100.00;101038.41;10506487;28;20407;-73
2022/11/08 14:47:45;;;;;;;6.45;3.40;;;;;;;8.41;100.00;101053.34;10515408;28;20135;-73
2022/11/08 14:52:46;;;;;;;11.23;3.58;;;;;;;7.85;100.00;100963.91;10522456;28;20035;-73
2022/11/08 14:57:47;;;;;;;7.40;3.13;;;;;;;8.27;100.00;101043.94;10517850;28;20040;-73
2022/11/08 15:02:52;;;;;;;8.40;3.45;;;;;;;8.22;100.00;101044.34;10514828;28;20055;-73
2022/11/08 15:07:53;;;;;;;12.13;3.83;;;;;;;8.08;100.00;101030.69;10519791;28;20113;-72
2022/11/08 15:12:54;;;;;;;6.30;3.38;;;;;;;7.94;100.00;101016.00;10511864;28;20424;-72
2022/11/08 15:18:15;;;;;;;9.35;3.63;;;;;;;8.15;100.00;101069.69;10503232;28;20452;-72
2022/11/08 15:23:41;;;;;;;7.43;4.03;;;;;;;7.61;100.00;100978.28;10519363;28;20061;-72
2022/11/08 15:28:59;;;;;;;9.65;3.88;;;;;;;8.09;100.00;101053.50;10519318;28;20040;-72
2022/11/08 15:34:01;;;;;;;10.13;4.65;;;;;;;7.94;100.00;101043.28;10517317;28;20032;-72
2022/11/08 15:39:05;;;;;;;11.38;4.82;;;;;;;7.95;100.00;101055.53;10508558;28;20087;-72
2022/11/08 15:44:22;;;;;;;11.05;5.72;;;;;;;7.59;100.00;100998.72;10509279;28;20057;-72
2022/11/08 15:49:28;;;;;;;11.23;6.35;;;;;;;8.03;100.00;101070.75;10508687;28;20156;-73
2022/11/08 15:54:28;;;;;;;16.80;6.68;;;;;;;7.99;100.00;101070.19;10516737;28;20036;-72
2022/11/08 15:59:29;;;;;;;14.07;6.90;;;;;;;7.87;100.00;101062.50;10515364;28;20044;-72
2022/11/08 16:04:30;;;;;;;19.48;6.72;;;;;;;7.31;100.00;100972.03;10553373;28;20059;-70
2022/11/08 16:09:31;;;;;;;21.95;7.20;;;;;;;7.92;100.00;101068.19;10563658;28;20024;-72
2022/11/08 16:14:31;;;;;;;15.27;6.70;;;;;;;7.88;100.00;101077.38;10511804;28;20048;-73
2022/11/08 16:19:32;;;;;;;18.63;6.78;;;;;;;7.80;100.00;101048.09;10516486;28;20420;-73
2022/11/08 16:24:33;;;;;;;19.08;7.05;;;;;;;7.88;100.00;101053.56;10515783;28;20032;-73
2022/11/08 16:29:34;;;;;;;14.60;6.70;;;;;;;7.63;100.00;101021.31;10508551;28;20131;-73
2022/11/08 16:34:35;;;;;;;20.63;7.45;;;;;;;7.81;100.00;101049.75;10505370;28;20036;-73
2022/11/08 16:39:36;;;;;;;19.35;6.72;;;;;;;6.95;100.00;100909.13;10513419;28;20057;-73
2022/11/08 16:44:38;;;;;;;15.93;5.97;;;;;;;7.65;100.00;101023.81;10511785;28;20036;-73
2022/11/08 16:49:39;;;;;;;21.00;6.72;;;;;;;7.81;100.00;101050.63;10510302;28;20135;-74
2022/11/08 16:54:40;;;;;;;16.27;6.72;;;;;;;7.73;100.00;101040.69;10515114;28;20114;-73
2022/11/08 16:59:40;;;;;;;18.08;6.05;;;;;;;7.44;100.00;100985.03;10512373;28;20041;-73
2022/11/08 17:04:41;;;;;;;14.52;5.72;;;;;;;7.74;100.00;101047.66;10518938;28;20079;-74
2022/11/08 17:09:42;;;;;;;8.77;5.00;;;;;;;7.78;100.00;101043.78;10517205;28;20058;-74
2022/11/08 17:14:42;;;;;;;10.18;5.03;;;;;;;7.85;100.00;101048.56;10510543;28;20459;-73
2022/11/08 17:19:43;;;;;;;10.77;4.70;;;;;;;7.86;100.00;101042.28;10512938;28;20058;-74
2022/11/08 17:24:44;;;;;;;8.27;5.13;;;;;;;7.78;100.00;101016.50;10507957;28;20127;-73
2022/11/08 17:29:45;;;;;;;7.25;4.10;;;;;;;7.87;100.00;101017.53;10510433;28;20484;-73
2022/11/08 17:34:46;;;;;;;7.18;4.28;;;;;;;7.75;100.00;101001.75;10510320;28;20036;-73
2022/11/08 17:39:46;;;;;;;6.93;3.80;;;;;;;7.82;100.00;101011.78;10511528;28;20051;-73
2022/11/08 17:44:48;;;;;;;6.55;4.00;;;;;;;7.45;100.00;100951.50;10528673;28;20044;-72
2022/11/08 17:49:49;;;;;;;6.50;3.90;;;;;;;7.91;100.00;101013.63;10527909;28;20036;-72
2022/11/08 17:54:50;;;;;;;7.60;3.90;;;;;;;7.96;100.00;101014.06;10534521;28;20045;-72
2022/11/08 17:59:51;;;;;;;8.95;3.80;;;;;;;7.99;100.00;101014.63;10532725;28;20040;-72
2022/11/08 18:04:52;;;;;;;8.88;4.82;;;;;;;8.04;100.00;101005.44;10536526;28;20036;-72
2022/11/08 18:09:53;;;;;;;5.55;3.42;;;;;;;7.95;100.00;101005.25;10506758;28;20072;-73
2022/11/08 18:14:53;;;;;;;5.32;3.00;;;;;;;7.70;100.00;100958.16;10494703;28;20157;-73
2022/11/08 18:19:54;;;;;;;6.15;2.85;;;;;;;8.09;100.00;101016.47;10504573;28;20047;-73
2022/11/08 18:24:55;;;;;;;4.70;3.22;;;;;;;8.17;100.00;101028.03;10494073;28;20365;-73
2022/11/08 18:29:56;;;;;;;5.30;2.80;;;;;;;8.14;100.00;101030.13;10494252;28;20032;-73
2022/11/08 18:34:56;;;;;;;6.15;3.05;;;;;;;8.09;100.00;101019.09;10494105;28;20041;-73
2022/11/08 18:39:57;;;;;;;5.80;3.15;;;;;;;8.09;100.00;101011.16;10512998;28;20143;-74
2022/11/08 18:44:58;;;;;;;10.93;4.20;;;;;;;8.13;100.00;101005.44;10518774;28;20047;-72
2022/11/08 18:50:00;;;;;;;13.52;3.72;;;;;;;8.13;100.00;101013.38;10522076;28;20052;-72
2022/11/08 18:55:03;;;;;;;5.65;3.28;;;;;;;8.19;100.00;101026.09;10518861;28;20036;-73
2022/11/08 19:00:04;;;;;;;10.23;5.13;;;;;;;7.69;100.00;100940.63;10518715;28;20500;-73
2022/11/08 19:05:05;;;;;;;5.50;2.78;;;;;;;7.78;100.00;100960.97;10518887;28;20044;-73
2022/11/08 19:10:07;;;;;;;21.17;3.78;;;;;;;7.88;100.00;100953.06;10506072;28;20062;-73
2022/11/08 19:15:08;;;;;;;5.63;2.35;;;;;;;7.44;100.00;100887.22;10499991;28;20486;-73
2022/11/08 19:20:09;;;;;;;4.05;1.95;;;;;;;8.18;100.00;100999.78;10501198;28;20074;-73
2022/11/08 19:25:10;;;;;;;9.40;1.80;;;;;;;8.38;100.00;101021.81;10500499;28;20048;-73
2022/11/08 19:30:11;;;;;;;8.02;2.58;;;;;;;8.37;100.00;101020.13;10500117;28;20045;-73
2022/11/08 19:35:12;;;;;;;3.10;1.70;;;;;;;7.89;100.00;100936.19;10499811;28;20040;-73
2022/11/08 19:40:13;;;;;;;6.57;1.80;;;;;;;8.42;100.00;101024.06;10499314;28;20059;-73
2022/11/08 19:45:14;;;;;;;9.00;1.58;;;;;;;8.47;100.00;101023.69;10499077;28;20059;-73
2022/11/08 19:50:14;;;;;;;4.75;1.85;;;;;;;8.23;100.00;100974.56;10498713;28;20039;-73
2022/11/08 19:55:15;;;;;;;8.00;2.45;;;;;;;8.50;100.00;101004.03;10498912;28;20040;-73
2022/11/08 20:00:17;;;;;;;24.35;2.20;;;;;;;8.29;100.00;100975.00;10498942;28;20040;-73
2022/11/08 20:05:18;;;;;;;30.33;2.42;;;;;;;8.36;100.00;100994.63;10509066;28;20571;-73
2022/11/08 20:10:19;;;;;;;28.95;2.80;;;;;;;8.37;100.00;101002.44;10498192;28;20408;-73
2022/11/08 20:15:20;;;;;;;101.68;3.65;;;;;;;8.02;100.00;100936.78;10498051;28;20037;-72
2022/11/08 20:20:21;;;;;;;54.78;3.10;;;;;;;8.44;100.00;101010.72;10496672;28;20033;-73
2022/11/08 20:25:22;;;;;;;37.58;2.83;;;;;;;8.38;100.00;100988.28;10497326;28;20040;-73
2022/11/08 20:30:23;;;;;;;13.07;3.10;;;;;;;8.54;100.00;101006.25;10497689;28;20042;-73
2022/11/08 20:35:24;;;;;;;9.43;3.20;;;;;;;8.41;100.00;101000.41;10497838;28;20070;-73
2022/11/08 20:40:25;;;;;;;18.83;5.45;;;;;;;8.57;100.00;101027.16;10497684;28;20060;-73
2022/11/08 20:45:25;;;;;;;26.20;6.53;;;;;;;8.34;100.00;100988.63;10496420;28;20040;-72
2022/11/08 20:50:26;;;;;;;10.98;7.57;;;;;;;8.39;100.00;100999.69;10497714;28;20040;-73
2022/11/08 20:55:28;;;;;;;15.93;7.80;;;;;;;8.42;100.00;101023.25;10496690;28;20123;-73
2022/11/08 21:00:29;;;;;;;15.88;9.55;;;;;;;8.42;100.00;101025.88;10496974;28;20052;-73
2022/11/08 21:05:29;;;;;;;13.68;9.27;;;;;;;8.45;100.00;101022.97;10495372;28;20044;-73
2022/11/08 21:10:30;;;;;;;13.27;9.82;;;;;;;8.42;100.00;101025.88;10495940;28;20044;-73
2022/11/08 21:15:31;;;;;;;10.10;8.43;;;;;;;8.41;100.00;101029.53;10495787;28;20139;-72
2022/11/08 21:20:32;;;;;;;14.52;9.95;;;;;;;8.42;100.00;101047.06;10497181;28;20037;-73
2022/11/08 21:25:33;;;;;;;15.63;10.40;;;;;;;8.40;100.00;101041.06;10496068;28;20416;-73
2022/11/08 21:30:33;;;;;;;16.63;10.70;;;;;;;7.90;100.00;100953.75;10495877;28;20047;-73
2022/11/08 21:35:34;;;;;;;15.38;11.10;;;;;;;8.42;100.00;101045.25;10506161;28;20530;-73
2022/11/08 21:40:36;;;;;;;15.25;11.10;;;;;;;8.36;100.00;101051.06;10495806;28;20048;-73
2022/11/08 21:45:37;;;;;;;15.52;10.68;;;;;;;7.94;100.00;100984.25;10495641;28;20141;-73
2022/11/08 21:50:39;;;;;;;16.77;12.00;;;;;;;8.33;100.00;101061.94;10496071;28;20149;-73
2022/11/08 21:55:39;;;;;;;17.17;11.93;;;;;;;8.13;100.00;101034.56;10495021;28;20037;-73
2022/11/08 22:00:40;;;;;;;22.52;13.40;;;;;;;8.11;100.00;101043.63;10494740;28;20489;-73
2022/11/08 22:05:43;;;;;;;22.85;13.48;;;;;;;7.72;100.00;100980.84;10495595;28;20127;-73
2022/11/08 22:10:45;;;;;;;21.63;14.60;;;;;;;7.85;100.00;100993.00;10493350;28;20535;-73
2022/11/08 22:15:46;;;;;;;21.23;13.20;;;;;;;8.04;100.00;101027.44;10494634;28;20041;-73
2022/11/08 22:26:24;;;;;;;26.52;16.83;;;;;;;8.16;100.00;101073.16;10475557;28;20107;-73
2022/11/08 22:31:25;;;;;;;24.90;15.10;;;;;;;8.10;100.00;101076.34;10501978;28;20492;-73
2022/11/08 22:36:26;;;;;;;21.73;15.77;;;;;;;8.06;100.00;101081.06;10502837;28;20048;-73
2022/11/08 22:41:27;;;;;;;22.83;15.05;;;;;;;8.04;100.00;101072.41;10503053;28;20120;-73
2022/11/08 22:46:28;;;;;;;22.73;14.45;;;;;;;7.87;100.00;101051.91;10501450;28;20101;-73
2022/11/08 22:51:29;;;;;;;26.02;15.77;;;;;;;7.97;100.00;101063.34;10502367;28;20093;-73
2022/11/08 22:56:29;;;;;;;25.17;15.13;;;;;;;7.96;100.00;101069.63;10501446;28;20521;-73
2022/11/08 23:01:31;;;;;;;28.83;16.23;;;;;;;8.01;100.00;101073.53;10500947;28;20037;-73
2022/11/08 23:06:32;;;;;;;28.70;16.00;;;;;;;7.97;100.00;101081.88;10500639;28;20032;-73
2022/11/08 23:16:51;;;;;;;23.60;14.55;;;;;;;7.31;100.00;100984.41;10511252;28;20171;-73
2022/11/08 23:32:34;;;;;;;27.67;15.15;;;;;;;7.85;100.00;101061.78;10499682;28;20055;-73
2022/11/08 23:37:35;;;;;;;28.40;15.88;;;;;;;7.47;100.00;101024.41;10500030;28;20572;-73
2022/11/08 23:47:55;;;;;;;26.77;15.48;;;;;;;7.57;100.00;101036.84;10499724;28;20127;-73
2022/11/08 23:52:58;;;;;;;24.25;15.00;;;;;;;7.54;100.00;101048.56;10499512;28;20142;-73
2022/11/08 23:57:59;;;;;;;26.23;14.60;;;;;;;7.62;100.00;101061.94;10499690;28;20036;-73
